sensor_id;sensor_type;location;lat;lon;timestamp;P1;durP1;ratioP1;P2;durP2;ratioP2
64669;SDS011;51080;51.690;5.174;2023-02-28T00:02:56;13.80;;;8.20;;
64669;SDS011;51080;51.690;5.174;2023-02-28T00:09:11;14.80;;;8.10;;
64669;SDS011;51080;51.690;5.174;2023-02-28T00:14:56;12.00;;;7.80;;
64669;SDS011;51080;51.690;5.174;2023-02-28T00:20:41;12.80;;;6.70;;
64669;SDS011;51080;51.690;5.174;2023-02-28T00:26:25;11.20;;;7.00;;
64669;SDS011;51080;51.690;5.174;2023-02-28T00:32:10;10.90;;;6.40;;
64669;SDS011;51080;51.690;5.174;2023-02-28T00:37:55;10.20;;;6.60;;
64669;SDS011;51080;51.690;5.174;2023-02-28T00:43:39;10.40;;;6.50;;
64669;SDS011;51080;51.690;5.174;2023-02-28T00:49:24;12.10;;;6.70;;
64669;SDS011;51080;51.690;5.174;2023-02-28T00:55:09;13.40;;;6.40;;
64669;SDS011;51080;51.690;5.174;2023-02-28T01:00:54;11.50;;;6.60;;
64669;SDS011;51080;51.690;5.174;2023-02-28T01:06:40;12.40;;;6.50;;
64669;SDS011;51080;51.690;5.174;2023-02-28T01:12:24;10.60;;;6.20;;
64669;SDS011;51080;51.690;5.174;2023-02-28T01:18:09;20.10;;;6.80;;
64669;SDS011;51080;51.690;5.174;2023-02-28T01:23:55;12.50;;;6.50;;
64669;SDS011;51080;51.690;5.174;2023-02-28T01:29:41;12.00;;;6.10;;
64669;SDS011;51080;51.690;5.174;2023-02-28T01:35:24;10.70;;;5.50;;
64669;SDS011;51080;51.690;5.174;2023-02-28T01:41:09;11.10;;;6.20;;
64669;SDS011;51080;51.690;5.174;2023-02-28T01:47:08;11.50;;;6.00;;
64669;SDS011;51080;51.690;5.174;2023-02-28T01:52:54;10.50;;;6.00;;
64669;SDS011;51080;51.690;5.174;2023-02-28T01:58:42;10.10;;;5.70;;
64669;SDS011;51080;51.690;5.174;2023-02-28T02:04:27;9.90;;;6.00;;
64669;SDS011;51080;51.690;5.174;2023-02-28T02:10:21;13.40;;;6.50;;
64669;SDS011;51080;51.690;5.174;2023-02-28T02:23:00;9.10;;;6.00;;
64669;SDS011;51080;51.690;5.174;2023-02-28T02:29:09;12.60;;;6.20;;
64669;SDS011;51080;51.690;5.174;2023-02-28T02:35:26;10.70;;;6.20;;
64669;SDS011;51080;51.690;5.174;2023-02-28T02:41:15;11.50;;;6.30;;
64669;SDS011;51080;51.690;5.174;2023-02-28T02:47:12;11.20;;;6.40;;
64669;SDS011;51080;51.690;5.174;2023-02-28T02:53:05;11.00;;;6.10;;
64669;SDS011;51080;51.690;5.174;2023-02-28T02:58:52;9.20;;;6.30;;
64669;SDS011;51080;51.690;5.174;2023-02-28T03:04:43;9.90;;;5.80;;
64669;SDS011;51080;51.690;5.174;2023-02-28T03:10:38;9.00;;;5.40;;
64669;SDS011;51080;51.690;5.174;2023-02-28T03:16:31;10.00;;;5.80;;
64669;SDS011;51080;51.690;5.174;2023-02-28T03:28:39;11.10;;;5.60;;
64669;SDS011;51080;51.690;5.174;2023-02-28T03:34:38;11.40;;;6.10;;
64669;SDS011;51080;51.690;5.174;2023-02-28T03:40:30;11.20;;;5.90;;
64669;SDS011;51080;51.690;5.174;2023-02-28T03:46:18;10.30;;;5.90;;
64669;SDS011;51080;51.690;5.174;2023-02-28T03:52:08;9.80;;;5.60;;
64669;SDS011;51080;51.690;5.174;2023-02-28T03:57:57;12.00;;;6.00;;
64669;SDS011;51080;51.690;5.174;2023-02-28T04:03:49;10.40;;;5.90;;
64669;SDS011;51080;51.690;5.174;2023-02-28T04:09:36;9.70;;;6.00;;
64669;SDS011;51080;51.690;5.174;2023-02-28T04:15:20;11.20;;;6.10;;
64669;SDS011;51080;51.690;5.174;2023-02-28T04:21:05;10.50;;;5.90;;
64669;SDS011;51080;51.690;5.174;2023-02-28T04:26:55;9.90;;;5.80;;
64669;SDS011;51080;51.690;5.174;2023-02-28T04:32:44;12.10;;;6.10;;
64669;SDS011;51080;51.690;5.174;2023-02-28T04:38:29;10.30;;;6.10;;
64669;SDS011;51080;51.690;5.174;2023-02-28T04:44:16;9.60;;;6.20;;
64669;SDS011;51080;51.690;5.174;2023-02-28T04:50:09;10.60;;;6.20;;
64669;SDS011;51080;51.690;5.174;2023-02-28T04:55:55;12.30;;;6.10;;
64669;SDS011;51080;51.690;5.174;2023-02-28T05:01:45;10.20;;;6.00;;
64669;SDS011;51080;51.690;5.174;2023-02-28T05:07:32;9.50;;;5.50;;
64669;SDS011;51080;51.690;5.174;2023-02-28T05:13:20;9.70;;;6.20;;
64669;SDS011;51080;51.690;5.174;2023-02-28T05:19:05;10.70;;;5.90;;
64669;SDS011;51080;51.690;5.174;2023-02-28T05:24:50;10.40;;;5.70;;
64669;SDS011;51080;51.690;5.174;2023-02-28T05:37:00;9.20;;;6.00;;
64669;SDS011;51080;51.690;5.174;2023-02-28T05:42:50;10.10;;;5.80;;
64669;SDS011;51080;51.690;5.174;2023-02-28T05:48:39;10.00;;;5.30;;
64669;SDS011;51080;51.690;5.174;2023-02-28T05:54:36;9.00;;;5.80;;
64669;SDS011;51080;51.690;5.174;2023-02-28T06:00:23;9.40;;;5.60;;
64669;SDS011;51080;51.690;5.174;2023-02-28T06:06:09;12.00;;;5.90;;
64669;SDS011;51080;51.690;5.174;2023-02-28T06:12:24;8.40;;;5.70;;
64669;SDS011;51080;51.690;5.174;2023-02-28T06:18:11;9.50;;;5.40;;
64669;SDS011;51080;51.690;5.174;2023-02-28T06:23:55;9.90;;;5.80;;
64669;SDS011;51080;51.690;5.174;2023-02-28T06:29:41;9.00;;;5.70;;
64669;SDS011;51080;51.690;5.174;2023-02-28T06:35:23;10.20;;;5.70;;
64669;SDS011;51080;51.690;5.174;2023-02-28T06:41:07;8.20;;;5.80;;
64669;SDS011;51080;51.690;5.174;2023-02-28T06:46:51;10.00;;;7.00;;
64669;SDS011;51080;51.690;5.174;2023-02-28T06:52:35;9.60;;;5.80;;
64669;SDS011;51080;51.690;5.174;2023-02-28T06:58:19;8.30;;;5.30;;
64669;SDS011;51080;51.690;5.174;2023-02-28T07:04:04;7.80;;;4.80;;
64669;SDS011;51080;51.690;5.174;2023-02-28T07:09:49;9.80;;;5.20;;
64669;SDS011;51080;51.690;5.174;2023-02-28T07:15:37;8.10;;;4.80;;
64669;SDS011;51080;51.690;5.174;2023-02-28T07:21:22;9.00;;;4.50;;
64669;SDS011;51080;51.690;5.174;2023-02-28T07:27:36;7.10;;;4.20;;
64669;SDS011;51080;51.690;5.174;2023-02-28T07:33:20;7.10;;;3.70;;
64669;SDS011;51080;51.690;5.174;2023-02-28T07:39:04;8.20;;;3.90;;
64669;SDS011;51080;51.690;5.174;2023-02-28T07:44:48;6.30;;;3.80;;
64669;SDS011;51080;51.690;5.174;2023-02-28T07:50:32;8.30;;;4.00;;
64669;SDS011;51080;51.690;5.174;2023-02-28T07:56:16;6.00;;;3.40;;
64669;SDS011;51080;51.690;5.174;2023-02-28T08:02:01;6.10;;;3.50;;
64669;SDS011;51080;51.690;5.174;2023-02-28T08:07:46;5.40;;;3.00;;
64669;SDS011;51080;51.690;5.174;2023-02-28T08:13:31;5.50;;;2.80;;
64669;SDS011;51080;51.690;5.174;2023-02-28T08:19:15;4.60;;;2.50;;
64669;SDS011;51080;51.690;5.174;2023-02-28T08:24:59;4.20;;;2.30;;
64669;SDS011;51080;51.690;5.174;2023-02-28T08:30:44;3.90;;;2.30;;
64669;SDS011;51080;51.690;5.174;2023-02-28T08:36:27;4.20;;;2.50;;
64669;SDS011;51080;51.690;5.174;2023-02-28T08:42:11;3.10;;;1.80;;
64669;SDS011;51080;51.690;5.174;2023-02-28T08:47:55;3.60;;;1.90;;
64669;SDS011;51080;51.690;5.174;2023-02-28T08:54:10;2.50;;;1.60;;
64669;SDS011;51080;51.690;5.174;2023-02-28T08:59:54;2.90;;;1.70;;
64669;SDS011;51080;51.690;5.174;2023-02-28T09:06:09;3.30;;;1.90;;
64669;SDS011;51080;51.690;5.174;2023-02-28T09:11:55;4.90;;;2.20;;
64669;SDS011;51080;51.690;5.174;2023-02-28T09:17:39;3.90;;;2.10;;
64669;SDS011;51080;51.690;5.174;2023-02-28T09:23:24;4.00;;;2.40;;
64669;SDS011;51080;51.690;5.174;2023-02-28T09:29:09;3.70;;;2.20;;
64669;SDS011;51080;51.690;5.174;2023-02-28T09:34:52;4.10;;;2.50;;
64669;SDS011;51080;51.690;5.174;2023-02-28T09:40:48;3.60;;;2.00;;
64669;SDS011;51080;51.690;5.174;2023-02-28T09:46:39;3.10;;;2.00;;
64669;SDS011;51080;51.690;5.174;2023-02-28T09:52:29;3.70;;;2.20;;
64669;SDS011;51080;51.690;5.174;2023-02-28T09:58:16;3.40;;;2.00;;
64669;SDS011;51080;51.690;5.174;2023-02-28T10:10:05;4.30;;;2.30;;
64669;SDS011;51080;51.690;5.174;2023-02-28T10:15:58;3.30;;;2.20;;
64669;SDS011;51080;51.690;5.174;2023-02-28T10:21:49;3.70;;;2.00;;
64669;SDS011;51080;51.690;5.174;2023-02-28T10:27:44;3.30;;;2.10;;
64669;SDS011;51080;51.690;5.174;2023-02-28T10:33:30;3.60;;;2.10;;
64669;SDS011;51080;51.690;5.174;2023-02-28T10:45:31;3.60;;;1.90;;
64669;SDS011;51080;51.690;5.174;2023-02-28T10:51:18;2.90;;;1.70;;
64669;SDS011;51080;51.690;5.174;2023-02-28T10:57:22;3.30;;;2.00;;
64669;SDS011;51080;51.690;5.174;2023-02-28T11:03:21;3.50;;;1.90;;
64669;SDS011;51080;51.690;5.174;2023-02-28T11:09:22;3.10;;;2.00;;
64669;SDS011;51080;51.690;5.174;2023-02-28T11:21:15;3.70;;;2.00;;
64669;SDS011;51080;51.690;5.174;2023-02-28T11:27:02;3.20;;;1.80;;
64669;SDS011;51080;51.690;5.174;2023-02-28T11:32:50;3.40;;;1.90;;
64669;SDS011;51080;51.690;5.174;2023-02-28T11:38:35;3.00;;;2.00;;
64669;SDS011;51080;51.690;5.174;2023-02-28T11:50:42;2.30;;;1.60;;
64669;SDS011;51080;51.690;5.174;2023-02-28T11:56:39;3.50;;;2.00;;
64669;SDS011;51080;51.690;5.174;2023-02-28T12:02:29;3.40;;;1.90;;
64669;SDS011;51080;51.690;5.174;2023-02-28T12:14:51;3.70;;;1.90;;
64669;SDS011;51080;51.690;5.174;2023-02-28T12:20:49;4.40;;;2.40;;
64669;SDS011;51080;51.690;5.174;2023-02-28T12:27:10;2.60;;;1.80;;
64669;SDS011;51080;51.690;5.174;2023-02-28T12:33:03;3.30;;;2.00;;
64669;SDS011;51080;51.690;5.174;2023-02-28T12:39:09;3.10;;;1.90;;
64669;SDS011;51080;51.690;5.174;2023-02-28T12:45:39;3.20;;;1.80;;
64669;SDS011;51080;51.690;5.174;2023-02-28T12:51:23;3.00;;;1.90;;
64669;SDS011;51080;51.690;5.174;2023-02-28T12:57:15;3.10;;;2.00;;
64669;SDS011;51080;51.690;5.174;2023-02-28T13:09:55;3.50;;;2.20;;
64669;SDS011;51080;51.690;5.174;2023-02-28T13:15:41;4.30;;;2.20;;
64669;SDS011;51080;51.690;5.174;2023-02-28T13:21:49;3.90;;;2.30;;
64669;SDS011;51080;51.690;5.174;2023-02-28T13:27:35;4.10;;;2.30;;
64669;SDS011;51080;51.690;5.174;2023-02-28T13:33:27;2.90;;;2.00;;
64669;SDS011;51080;51.690;5.174;2023-02-28T13:45:24;4.40;;;2.30;;
64669;SDS011;51080;51.690;5.174;2023-02-28T13:51:28;3.50;;;2.30;;
64669;SDS011;51080;51.690;5.174;2023-02-28T13:57:35;4.10;;;2.10;;
64669;SDS011;51080;51.690;5.174;2023-02-28T14:09:54;5.20;;;2.40;;
64669;SDS011;51080;51.690;5.174;2023-02-28T14:21:49;3.00;;;2.30;;
64669;SDS011;51080;51.690;5.174;2023-02-28T14:27:58;3.90;;;2.40;;
64669;SDS011;51080;51.690;5.174;2023-02-28T14:39:57;4.20;;;2.80;;
64669;SDS011;51080;51.690;5.174;2023-02-28T14:45:42;5.70;;;2.80;;
64669;SDS011;51080;51.690;5.174;2023-02-28T14:51:26;4.50;;;2.60;;
64669;SDS011;51080;51.690;5.174;2023-02-28T14:57:29;6.00;;;3.10;;
64669;SDS011;51080;51.690;5.174;2023-02-28T15:03:22;5.10;;;2.80;;
64669;SDS011;51080;51.690;5.174;2023-02-28T15:09:15;6.40;;;3.10;;
64669;SDS011;51080;51.690;5.174;2023-02-28T15:22:15;4.70;;;2.70;;
64669;SDS011;51080;51.690;5.174;2023-02-28T15:28:04;4.30;;;2.30;;
64669;SDS011;51080;51.690;5.174;2023-02-28T15:33:55;6.00;;;2.40;;
64669;SDS011;51080;51.690;5.174;2023-02-28T15:39:42;6.30;;;3.90;;
64669;SDS011;51080;51.690;5.174;2023-02-28T15:45:36;4.70;;;2.60;;
64669;SDS011;51080;51.690;5.174;2023-02-28T15:51:18;4.30;;;2.50;;
64669;SDS011;51080;51.690;5.174;2023-02-28T15:57:10;4.10;;;2.60;;
64669;SDS011;51080;51.690;5.174;2023-02-28T16:02:59;5.10;;;2.60;;
64669;SDS011;51080;51.690;5.174;2023-02-28T16:08:44;3.80;;;2.50;;
64669;SDS011;51080;51.690;5.174;2023-02-28T16:14:29;5.10;;;2.90;;
64669;SDS011;51080;51.690;5.174;2023-02-28T16:20:24;4.40;;;2.90;;
64669;SDS011;51080;51.690;5.174;2023-02-28T16:26:16;4.60;;;2.50;;
64669;SDS011;51080;51.690;5.174;2023-02-28T16:32:04;4.10;;;2.50;;
64669;SDS011;51080;51.690;5.174;2023-02-28T16:37:52;5.30;;;2.80;;
64669;SDS011;51080;51.690;5.174;2023-02-28T16:43:38;6.50;;;2.70;;
64669;SDS011;51080;51.690;5.174;2023-02-28T16:49:22;4.10;;;2.80;;
64669;SDS011;51080;51.690;5.174;2023-02-28T16:55:08;6.30;;;3.20;;
64669;SDS011;51080;51.690;5.174;2023-02-28T17:00:53;4.50;;;3.10;;
64669;SDS011;51080;51.690;5.174;2023-02-28T17:06:38;4.20;;;2.80;;
64669;SDS011;51080;51.690;5.174;2023-02-28T17:12:21;5.60;;;3.40;;
64669;SDS011;51080;51.690;5.174;2023-02-28T17:18:06;6.60;;;3.00;;
64669;SDS011;51080;51.690;5.174;2023-02-28T17:23:52;5.00;;;3.10;;
64669;SDS011;51080;51.690;5.174;2023-02-28T17:29:37;4.80;;;3.10;;
64669;SDS011;51080;51.690;5.174;2023-02-28T17:35:20;7.00;;;3.80;;
64669;SDS011;51080;51.690;5.174;2023-02-28T17:41:04;6.10;;;4.00;;
64669;SDS011;51080;51.690;5.174;2023-02-28T17:46:48;5.90;;;4.40;;
64669;SDS011;51080;51.690;5.174;2023-02-28T17:52:33;5.50;;;4.10;;
64669;SDS011;51080;51.690;5.174;2023-02-28T17:58:17;7.10;;;4.60;;
64669;SDS011;51080;51.690;5.174;2023-02-28T18:04:31;7.50;;;4.40;;
64669;SDS011;51080;51.690;5.174;2023-02-28T18:10:19;10.90;;;5.00;;
64669;SDS011;51080;51.690;5.174;2023-02-28T18:16:08;7.70;;;4.80;;
64669;SDS011;51080;51.690;5.174;2023-02-28T18:21:52;8.70;;;5.00;;
64669;SDS011;51080;51.690;5.174;2023-02-28T18:27:37;9.00;;;5.50;;
64669;SDS011;51080;51.690;5.174;2023-02-28T18:33:21;7.10;;;5.00;;
64669;SDS011;51080;51.690;5.174;2023-02-28T18:39:06;6.50;;;5.20;;
64669;SDS011;51080;51.690;5.174;2023-02-28T18:44:52;8.50;;;5.30;;
64669;SDS011;51080;51.690;5.174;2023-02-28T18:50:37;8.40;;;5.10;;
64669;SDS011;51080;51.690;5.174;2023-02-28T18:56:24;9.50;;;4.90;;
64669;SDS011;51080;51.690;5.174;2023-02-28T19:02:40;6.90;;;4.60;;
64669;SDS011;51080;51.690;5.174;2023-02-28T19:08:24;8.00;;;4.90;;
64669;SDS011;51080;51.690;5.174;2023-02-28T19:14:39;10.40;;;5.40;;
64669;SDS011;51080;51.690;5.174;2023-02-28T19:20:24;9.40;;;5.50;;
64669;SDS011;51080;51.690;5.174;2023-02-28T19:26:10;9.70;;;6.70;;
64669;SDS011;51080;51.690;5.174;2023-02-28T19:31:57;12.80;;;8.10;;
64669;SDS011;51080;51.690;5.174;2023-02-28T19:37:41;13.80;;;8.40;;
64669;SDS011;51080;51.690;5.174;2023-02-28T19:43:25;42.50;;;18.70;;
64669;SDS011;51080;51.690;5.174;2023-02-28T19:49:09;48.30;;;21.70;;
64669;SDS011;51080;51.690;5.174;2023-02-28T19:54:54;31.20;;;16.00;;
64669;SDS011;51080;51.690;5.174;2023-02-28T20:00:39;18.40;;;10.90;;
64669;SDS011;51080;51.690;5.174;2023-02-28T20:06:24;17.90;;;10.30;;
64669;SDS011;51080;51.690;5.174;2023-02-28T20:12:39;12.20;;;8.50;;
64669;SDS011;51080;51.690;5.174;2023-02-28T20:18:23;14.30;;;9.60;;
64669;SDS011;51080;51.690;5.174;2023-02-28T20:24:08;23.80;;;13.50;;
64669;SDS011;51080;51.690;5.174;2023-02-28T20:29:54;25.70;;;14.30;;
64669;SDS011;51080;51.690;5.174;2023-02-28T20:35:38;20.10;;;12.00;;
64669;SDS011;51080;51.690;5.174;2023-02-28T20:41:22;18.60;;;11.70;;
64669;SDS011;51080;51.690;5.174;2023-02-28T20:47:38;17.20;;;10.70;;
64669;SDS011;51080;51.690;5.174;2023-02-28T20:53:24;14.30;;;10.20;;
64669;SDS011;51080;51.690;5.174;2023-02-28T20:59:10;18.60;;;12.60;;
64669;SDS011;51080;51.690;5.174;2023-02-28T21:04:55;18.60;;;12.40;;
64669;SDS011;51080;51.690;5.174;2023-02-28T21:10:40;20.70;;;12.60;;
64669;SDS011;51080;51.690;5.174;2023-02-28T21:16:26;22.30;;;12.80;;
64669;SDS011;51080;51.690;5.174;2023-02-28T21:22:10;38.10;;;13.00;;
64669;SDS011;51080;51.690;5.174;2023-02-28T21:27:55;16.30;;;10.20;;
64669;SDS011;51080;51.690;5.174;2023-02-28T21:33:39;15.70;;;10.20;;
64669;SDS011;51080;51.690;5.174;2023-02-28T21:39:24;14.60;;;9.30;;
64669;SDS011;51080;51.690;5.174;2023-02-28T21:45:10;27.20;;;12.50;;
64669;SDS011;51080;51.690;5.174;2023-02-28T21:50:59;23.40;;;12.70;;
64669;SDS011;51080;51.690;5.174;2023-02-28T21:56:48;18.10;;;10.90;;
64669;SDS011;51080;51.690;5.174;2023-02-28T22:02:33;18.60;;;10.90;;
64669;SDS011;51080;51.690;5.174;2023-02-28T22:08:49;29.20;;;13.40;;
64669;SDS011;51080;51.690;5.174;2023-02-28T22:14:38;22.80;;;12.90;;
64669;SDS011;51080;51.690;5.174;2023-02-28T22:20:24;16.50;;;10.90;;
64669;SDS011;51080;51.690;5.174;2023-02-28T22:26:10;16.50;;;9.90;;
64669;SDS011;51080;51.690;5.174;2023-02-28T22:31:56;14.80;;;9.70;;
64669;SDS011;51080;51.690;5.174;2023-02-28T22:37:41;13.90;;;8.70;;
64669;SDS011;51080;51.690;5.174;2023-02-28T22:43:58;14.70;;;8.50;;
64669;SDS011;51080;51.690;5.174;2023-02-28T22:49:44;18.30;;;10.50;;
64669;SDS011;51080;51.690;5.174;2023-02-28T22:55:29;15.60;;;10.20;;
64669;SDS011;51080;51.690;5.174;2023-02-28T23:01:14;17.40;;;11.10;;
64669;SDS011;51080;51.690;5.174;2023-02-28T23:07:01;18.50;;;10.20;;
64669;SDS011;51080;51.690;5.174;2023-02-28T23:14:37;18.30;;;11.20;;
64669;SDS011;51080;51.690;5.174;2023-02-28T23:20:21;15.70;;;9.90;;
64669;SDS011;51080;51.690;5.174;2023-02-28T23:26:06;17.60;;;10.20;;
64669;SDS011;51080;51.690;5.174;2023-02-28T23:31:52;17.60;;;11.50;;
64669;SDS011;51080;51.690;5.174;2023-02-28T23:37:38;19.00;;;12.60;;
64669;SDS011;51080;51.690;5.174;2023-02-28T23:43:22;16.90;;;11.30;;
64669;SDS011;51080;51.690;5.174;2023-02-28T23:49:37;17.60;;;11.10;;
64669;SDS011;51080;51.690;5.174;2023-02-28T23:55:23;17.80;;;11.60;;
